createdAt,value
2023-06-24T00:00:54.691Z,3.80
2023-06-24T00:03:22.761Z,3.65
2023-06-24T00:05:51.667Z,3.40
2023-06-24T00:08:25.674Z,3.97
2023-06-24T00:10:53.667Z,3.87
2023-06-24T00:13:21.650Z,4.03
2023-06-24T00:15:49.603Z,3.70
2023-06-24T00:18:17.530Z,3.70
2023-06-24T00:20:45.680Z,3.35
2023-06-24T00:23:19.477Z,3.83
2023-06-24T00:25:47.433Z,3.80
2023-06-24T00:28:15.452Z,4.10
2023-06-24T00:30:43.406Z,4.32
2023-06-24T00:33:14.149Z,3.97
2023-06-24T00:35:43.010Z,4.28
2023-06-24T00:38:11.479Z,4.05
2023-06-24T00:40:40.827Z,4.50
2023-06-24T00:43:10.077Z,4.45
2023-06-24T00:45:38.080Z,4.20
2023-06-24T00:48:06.437Z,4.20
2023-06-24T00:50:34.460Z,4.15
2023-06-24T00:53:02.402Z,3.65
2023-06-24T00:55:31.516Z,3.75
2023-06-24T00:58:01.783Z,4.90
2023-06-24T01:00:29.795Z,4.12
2023-06-24T01:03:00.031Z,4.90
2023-06-24T01:05:32.383Z,4.90
2023-06-24T01:08:01.237Z,4.90
2023-06-24T01:10:29.319Z,4.62
2023-06-24T01:12:57.272Z,4.57
2023-06-24T01:15:25.680Z,4.85
2023-06-24T01:18:01.726Z,4.12
2023-06-24T01:21:03.857Z,5.00
2023-06-24T01:23:53.018Z,4.90
2023-06-24T01:26:38.951Z,5.05
2023-06-24T01:29:36.035Z,4.45
2023-06-24T01:32:32.796Z,4.30
2023-06-24T01:35:08.589Z,4.55
2023-06-24T01:37:57.401Z,4.78
2023-06-24T01:40:30.478Z,4.57
2023-06-24T01:43:04.888Z,4.75
2023-06-24T01:45:39.073Z,4.95
2023-06-24T01:48:14.528Z,4.50
2023-06-24T01:50:46.310Z,4.62
2023-06-24T01:53:16.636Z,4.60
2023-06-24T01:55:46.104Z,4.65
2023-06-24T01:58:16.175Z,4.75
2023-06-24T02:00:44.557Z,4.95
2023-06-24T02:03:13.360Z,4.53
2023-06-24T02:05:43.376Z,4.20
2023-06-24T02:08:16.352Z,5.10
2023-06-24T02:10:45.072Z,4.53
2023-06-24T02:13:14.782Z,4.82
2023-06-24T02:15:43.530Z,4.87
2023-06-24T02:18:13.268Z,4.55
2023-06-24T02:20:42.778Z,5.07
2023-06-24T02:23:11.835Z,5.20
2023-06-24T02:25:42.443Z,5.00
2023-06-24T02:28:11.432Z,5.75
2023-06-24T02:30:41.293Z,5.80
2023-06-24T02:33:09.377Z,5.28
2023-06-24T02:35:37.581Z,7.03
2023-06-24T02:38:06.019Z,7.15
2023-06-24T02:40:35.077Z,6.85
2023-06-24T02:43:03.089Z,6.45
2023-06-24T02:45:31.396Z,6.75
2023-06-24T02:48:00.400Z,4.72
2023-06-24T02:50:29.638Z,5.60
2023-06-24T02:52:59.593Z,4.47
2023-06-24T02:55:29.177Z,4.68
2023-06-24T02:57:58.800Z,4.68
2023-06-24T03:00:27.260Z,4.18
2023-06-24T03:02:56.617Z,4.10
2023-06-24T03:05:27.888Z,4.50
2023-06-24T03:07:55.868Z,4.32
2023-06-24T03:10:26.777Z,4.22
2023-06-24T03:12:55.887Z,4.53
2023-06-24T03:15:25.300Z,4.22
2023-06-24T03:17:54.927Z,4.82
2023-06-24T03:20:23.630Z,4.12
2023-06-24T03:22:51.636Z,4.18
2023-06-24T03:25:19.644Z,4.20
2023-06-24T03:27:47.529Z,4.05
2023-06-24T03:30:17.464Z,4.53
2023-06-24T03:32:49.358Z,3.95
2023-06-24T03:35:18.274Z,4.45
2023-06-24T03:37:47.172Z,4.70
2023-06-24T03:40:15.339Z,5.20
2023-06-24T03:42:43.593Z,4.53
2023-06-24T03:45:11.915Z,4.47
2023-06-24T03:47:41.130Z,4.40
2023-06-24T03:50:09.528Z,4.30
2023-06-24T03:52:37.451Z,4.60
2023-06-24T03:55:06.819Z,4.57
2023-06-24T03:57:34.737Z,4.97
2023-06-24T04:00:02.652Z,4.43
2023-06-24T04:02:31.854Z,4.55
2023-06-24T04:05:00.616Z,4.30
2023-06-24T04:07:31.320Z,4.85
2023-06-24T04:09:59.541Z,4.70
2023-06-24T04:12:27.519Z,4.40
2023-06-24T04:14:55.503Z,5.32
2023-06-24T04:17:23.648Z,4.47
2023-06-24T04:19:51.855Z,4.45
2023-06-24T04:22:19.831Z,4.87
2023-06-24T04:24:47.750Z,4.93
2023-06-24T04:27:15.638Z,5.50
2023-06-24T04:29:43.614Z,5.07
2023-06-24T04:32:11.550Z,5.62
2023-06-24T04:34:39.517Z,5.43
2023-06-24T04:37:07.517Z,5.03
2023-06-24T04:39:35.486Z,4.40
2023-06-24T04:42:03.405Z,4.70
2023-06-24T04:44:31.288Z,4.82
2023-06-24T04:46:59.313Z,4.72
2023-06-24T04:49:27.260Z,5.80
2023-06-24T04:51:55.259Z,6.07
2023-06-24T04:54:23.236Z,5.93
2023-06-24T04:56:53.149Z,5.93
2023-06-24T04:59:21.206Z,5.85
2023-06-24T05:01:49.075Z,5.35
2023-06-24T05:04:16.954Z,5.37
2023-06-24T05:06:44.947Z,5.28
2023-06-24T05:09:16.093Z,5.60
2023-06-24T05:11:44.023Z,5.40
2023-06-24T05:14:12.384Z,5.37
2023-06-24T05:16:40.314Z,4.87
2023-06-24T05:19:08.274Z,5.57
2023-06-24T05:21:36.170Z,5.57
2023-06-24T05:24:04.056Z,5.30
2023-06-24T05:26:32.034Z,5.90
2023-06-24T05:28:59.920Z,5.87
2023-06-24T05:31:27.846Z,5.40
2023-06-24T05:33:55.817Z,5.75
2023-06-24T05:36:23.762Z,5.37
2023-06-24T05:38:51.681Z,4.90
2023-06-24T05:41:19.652Z,5.43
2023-06-24T05:43:47.759Z,5.22
2023-06-24T05:46:15.663Z,4.97
2023-06-24T05:48:44.609Z,4.10
2023-06-24T05:51:12.488Z,3.80
2023-06-24T05:53:40.373Z,4.37
2023-06-24T05:56:08.246Z,4.07
2023-06-24T05:58:36.108Z,4.22
2023-06-24T06:01:04.119Z,3.83
2023-06-24T06:03:32.085Z,3.85
2023-06-24T06:06:00.008Z,4.05
2023-06-24T06:08:27.945Z,4.20
2023-06-24T06:10:55.902Z,3.92
2023-06-24T06:13:23.993Z,4.25
2023-06-24T06:15:51.926Z,4.05
2023-06-24T06:18:19.798Z,4.50
2023-06-24T06:20:47.854Z,3.50
2023-06-24T06:23:15.906Z,3.37
2023-06-24T06:25:43.905Z,3.60
2023-06-24T06:28:11.902Z,3.30
2023-06-24T06:30:40.623Z,3.72
2023-06-24T06:33:08.656Z,3.35
2023-06-24T06:35:37.214Z,4.00
2023-06-24T06:38:05.247Z,3.58
2023-06-24T06:40:33.279Z,3.37
2023-06-24T06:43:01.250Z,3.00
2023-06-24T06:45:30.479Z,3.75
2023-06-24T06:48:00.441Z,3.20
2023-06-24T06:50:28.436Z,4.55
2023-06-24T06:52:56.882Z,3.55
2023-06-24T06:55:24.820Z,4.10
2023-06-24T06:57:52.711Z,3.60
2023-06-24T07:00:20.760Z,3.70
2023-06-24T07:02:48.728Z,3.97
2023-06-24T07:05:16.973Z,3.55
2023-06-24T07:07:47.725Z,4.20
2023-06-24T07:10:15.694Z,3.53
2023-06-24T07:12:43.606Z,4.37
2023-06-24T07:15:13.476Z,4.07
2023-06-24T07:17:43.350Z,4.32
2023-06-24T07:20:11.885Z,4.43
2023-06-24T07:22:39.833Z,4.15
2023-06-24T07:25:07.909Z,4.47
2023-06-24T07:27:35.958Z,4.28
2023-06-24T07:30:03.968Z,4.72
2023-06-24T07:32:31.917Z,4.53
2023-06-24T07:34:59.958Z,4.78
2023-06-24T07:37:27.890Z,5.18
2023-06-24T07:39:55.782Z,5.25
2023-06-24T07:42:23.764Z,5.00
2023-06-24T07:44:51.674Z,4.75
2023-06-24T07:47:21.254Z,4.80
2023-06-24T07:49:49.270Z,4.25
2023-06-24T07:52:17.267Z,4.72
2023-06-24T07:54:45.606Z,4.07
2023-06-24T07:57:13.616Z,3.92
2023-06-24T07:59:41.588Z,4.25
2023-06-24T08:02:09.513Z,3.85
2023-06-24T08:04:37.726Z,3.72
2023-06-24T08:07:06.979Z,4.03
2023-06-24T08:09:35.064Z,4.28
2023-06-24T08:12:03.000Z,3.92
2023-06-24T08:14:31.094Z,3.97
2023-06-24T08:16:59.084Z,5.05
2023-06-24T08:19:26.987Z,3.85
2023-06-24T08:21:55.952Z,4.10
2023-06-24T08:24:23.895Z,4.47
2023-06-24T08:26:51.797Z,3.97
2023-06-24T08:29:19.726Z,4.10
2023-06-24T08:31:47.675Z,4.03
2023-06-24T08:34:15.790Z,3.83
2023-06-24T08:36:43.765Z,4.00
2023-06-24T08:39:11.830Z,3.80
2023-06-24T08:41:40.696Z,3.78
2023-06-24T08:44:10.254Z,4.22
2023-06-24T08:46:38.541Z,3.72
2023-06-24T08:49:26.639Z,4.28
2023-06-24T08:52:13.398Z,3.78
2023-06-24T08:54:43.445Z,3.92
2023-06-24T08:57:16.906Z,4.18
2023-06-24T08:59:45.317Z,4.18
2023-06-24T09:02:13.987Z,3.92
2023-06-24T09:04:43.032Z,4.37
2023-06-24T09:07:11.006Z,4.00
2023-06-24T09:09:49.179Z,4.53
2023-06-24T09:12:17.775Z,4.40
2023-06-24T09:14:51.378Z,4.07
2023-06-24T09:17:20.473Z,4.20
2023-06-24T09:19:48.366Z,4.20
2023-06-24T09:22:20.035Z,4.10
2023-06-24T09:24:50.149Z,4.00
2023-06-24T09:27:22.516Z,3.83
2023-06-24T09:29:50.411Z,4.05
2023-06-24T09:32:18.385Z,3.83
2023-06-24T09:34:46.369Z,3.83
2023-06-24T09:37:25.301Z,4.00
2023-06-24T09:39:53.356Z,3.83
2023-06-24T09:42:24.003Z,3.67
2023-06-24T09:44:58.437Z,3.92
2023-06-24T09:47:27.510Z,4.22
2023-06-24T09:49:56.386Z,3.83
2023-06-24T09:52:24.717Z,3.67
2023-06-24T09:54:56.905Z,3.40
2023-06-24T09:57:31.183Z,3.90
2023-06-24T10:00:00.878Z,3.60
2023-06-24T10:02:33.473Z,4.10
2023-06-24T10:05:02.947Z,3.35
2023-06-24T10:07:31.294Z,3.58
2023-06-24T10:09:59.506Z,3.85
2023-06-24T10:12:29.194Z,3.40
2023-06-24T10:14:57.568Z,3.55
2023-06-24T10:17:26.142Z,3.92
2023-06-24T10:19:56.658Z,3.53
2023-06-24T10:22:28.561Z,3.25
2023-06-24T10:24:57.019Z,3.80
2023-06-24T10:27:25.498Z,4.10
2023-06-24T10:29:59.616Z,3.87
2023-06-24T10:32:27.641Z,3.30
2023-06-24T10:34:59.644Z,3.40
2023-06-24T10:37:32.760Z,2.90
2023-06-24T10:40:02.702Z,3.70
2023-06-24T10:42:37.609Z,3.42
2023-06-24T10:45:11.342Z,3.70
2023-06-24T10:47:47.037Z,3.50
2023-06-24T10:50:17.724Z,3.58
2023-06-24T10:52:50.835Z,4.15
2023-06-24T10:55:20.593Z,4.00
2023-06-24T10:57:49.051Z,2.90
2023-06-24T11:00:18.189Z,3.97
2023-06-24T11:02:47.331Z,3.33
2023-06-24T11:05:15.349Z,3.00
2023-06-24T11:07:43.374Z,4.00
2023-06-24T11:10:15.900Z,3.42
2023-06-24T11:12:45.533Z,3.83
2023-06-24T11:15:15.562Z,3.35
2023-06-24T11:17:44.032Z,3.37
2023-06-24T11:20:16.219Z,3.22
2023-06-24T11:22:45.100Z,3.70
2023-06-24T11:25:22.019Z,3.03
2023-06-24T11:27:52.479Z,3.15
2023-06-24T11:30:20.476Z,3.55
2023-06-24T11:32:50.800Z,3.12
2023-06-24T11:35:19.099Z,3.40
2023-06-24T11:37:49.205Z,3.58
2023-06-24T11:40:21.704Z,3.92
2023-06-24T11:42:53.051Z,3.83
2023-06-24T11:45:23.886Z,3.10
2023-06-24T11:47:52.018Z,3.30
2023-06-24T11:50:19.944Z,3.30
2023-06-24T11:52:51.346Z,3.00
2023-06-24T11:55:20.621Z,3.53
2023-06-24T11:57:58.757Z,3.58
2023-06-24T12:00:34.989Z,3.17
2023-06-24T12:03:06.544Z,3.00
2023-06-24T12:05:38.354Z,3.28
2023-06-24T12:08:12.346Z,3.05
2023-06-24T12:10:41.249Z,3.37
2023-06-24T12:13:10.934Z,3.30
2023-06-24T12:15:39.077Z,3.05
2023-06-24T12:18:07.807Z,3.20
2023-06-24T12:20:39.005Z,3.28
2023-06-24T12:23:07.830Z,3.50
2023-06-24T12:25:35.937Z,3.20
2023-06-24T12:28:03.877Z,3.17
2023-06-24T12:30:31.812Z,2.90
2023-06-24T12:32:59.973Z,2.90
2023-06-24T12:35:28.246Z,3.10
2023-06-24T12:37:56.323Z,3.17
2023-06-24T12:40:24.518Z,3.10
2023-06-24T12:42:53.318Z,3.10
2023-06-24T12:45:22.140Z,2.92
2023-06-24T12:47:50.167Z,2.83
2023-06-24T12:50:18.262Z,3.00
2023-06-24T12:52:46.364Z,3.35
2023-06-24T12:55:16.827Z,3.12
2023-06-24T12:57:45.274Z,3.20
2023-06-24T13:00:13.845Z,2.90
2023-06-24T13:02:41.882Z,3.00
2023-06-24T13:05:10.217Z,3.28
2023-06-24T13:07:38.128Z,3.62
2023-06-24T13:10:08.416Z,3.05
2023-06-24T13:12:37.269Z,3.00
2023-06-24T13:15:07.185Z,3.25
2023-06-24T13:17:35.200Z,3.20
2023-06-24T13:20:05.234Z,2.60
2023-06-24T13:22:33.815Z,2.95
2023-06-24T13:25:02.408Z,3.05
2023-06-24T13:27:30.623Z,2.87
2023-06-24T13:29:58.732Z,3.03
2023-06-24T13:32:26.745Z,2.83
2023-06-24T13:34:54.721Z,2.87
2023-06-24T13:37:22.944Z,3.12
2023-06-24T13:39:51.228Z,3.50
2023-06-24T13:42:19.192Z,2.95
2023-06-24T13:44:47.134Z,3.10
2023-06-24T13:47:15.567Z,3.33
2023-06-24T13:49:43.734Z,3.10
2023-06-24T13:52:11.705Z,2.83
2023-06-24T13:54:39.693Z,3.00
2023-06-24T13:57:07.775Z,3.55
2023-06-24T13:59:35.882Z,3.03
2023-06-24T14:02:04.358Z,3.15
2023-06-24T14:04:32.857Z,3.05
2023-06-24T14:07:00.892Z,3.17
2023-06-24T14:09:28.907Z,3.05
2023-06-24T14:11:57.905Z,3.03
2023-06-24T14:14:25.981Z,3.37
2023-06-24T14:16:54.060Z,3.33
2023-06-24T14:19:24.411Z,3.15
2023-06-24T14:21:53.621Z,3.30
2023-06-24T14:24:21.744Z,3.12
2023-06-24T14:26:51.437Z,3.12
2023-06-24T14:29:19.848Z,3.10
2023-06-24T14:31:47.897Z,3.28
2023-06-24T14:34:16.022Z,3.30
2023-06-24T14:36:43.951Z,3.28
2023-06-24T14:39:11.921Z,3.20
2023-06-24T14:41:39.835Z,3.45
2023-06-24T14:44:07.748Z,3.05
2023-06-24T14:46:35.803Z,3.50
2023-06-24T14:49:04.271Z,3.42
2023-06-24T14:51:32.240Z,3.47
2023-06-24T14:54:00.202Z,3.22
2023-06-24T14:56:28.225Z,3.03
2023-06-24T14:58:56.085Z,3.10
2023-06-24T15:01:24.266Z,2.75
2023-06-24T15:03:52.285Z,2.90
2023-06-24T15:06:20.190Z,3.17
2023-06-24T15:08:48.155Z,3.05
2023-06-24T15:11:16.179Z,2.92
2023-06-24T15:13:44.124Z,3.70
2023-06-24T15:16:12.041Z,3.40
2023-06-24T15:18:48.366Z,3.22
2023-06-24T15:21:34.462Z,3.42
2023-06-24T15:24:04.799Z,3.25
2023-06-24T15:26:32.937Z,3.67
2023-06-24T15:29:00.907Z,3.50
2023-06-24T15:31:29.108Z,4.00
2023-06-24T15:33:57.078Z,3.75
2023-06-24T15:36:28.937Z,3.50
2023-06-24T15:38:57.497Z,3.40
2023-06-24T15:41:25.697Z,3.10
2023-06-24T15:43:53.699Z,3.00
2023-06-24T15:46:22.019Z,3.33
2023-06-24T15:48:50.144Z,2.60
2023-06-24T15:51:18.066Z,2.97
2023-06-24T15:53:46.008Z,3.20
2023-06-24T15:56:14.020Z,3.53
2023-06-24T15:58:42.543Z,3.17
2023-06-24T16:01:10.615Z,3.67
2023-06-24T16:03:39.796Z,3.60
2023-06-24T16:06:07.974Z,3.40
2023-06-24T16:08:35.988Z,3.40
2023-06-24T16:11:03.957Z,3.53
2023-06-24T16:13:33.075Z,3.40
2023-06-24T16:16:01.249Z,3.55
2023-06-24T16:18:29.151Z,3.50
2023-06-24T16:20:57.060Z,3.20
2023-06-24T16:23:25.008Z,3.40
2023-06-24T16:25:53.330Z,3.35
2023-06-24T16:28:21.277Z,3.20
2023-06-24T16:30:49.843Z,3.53
2023-06-24T16:33:17.825Z,3.40
2023-06-24T16:35:45.749Z,4.00
2023-06-24T16:38:13.711Z,10.40
2023-06-24T16:40:41.671Z,3.85
2023-06-24T16:43:09.940Z,3.90
2023-06-24T16:45:37.972Z,3.45
2023-06-24T16:48:06.410Z,4.15
2023-06-24T16:50:36.595Z,5.60
2023-06-24T16:53:04.843Z,7.05
2023-06-24T16:55:32.768Z,4.20
2023-06-24T16:58:00.872Z,4.15
2023-06-24T17:00:28.947Z,3.87
2023-06-24T17:02:57.021Z,3.90
2023-06-24T17:05:25.104Z,3.92
2023-06-24T17:07:53.070Z,3.35
2023-06-24T17:10:21.150Z,3.55
2023-06-24T17:12:49.083Z,3.55
2023-06-24T17:15:17.105Z,3.75
2023-06-24T17:17:45.165Z,3.58
2023-06-24T17:20:13.135Z,3.47
2023-06-24T17:22:41.153Z,3.80
2023-06-24T17:25:09.450Z,3.17
2023-06-24T17:27:37.437Z,3.53
2023-06-24T17:30:05.893Z,4.22
2023-06-24T17:32:33.904Z,3.67
2023-06-24T17:35:01.924Z,3.75
2023-06-24T17:37:29.866Z,3.40
2023-06-24T17:39:57.769Z,3.60
2023-06-24T17:42:25.750Z,3.60
2023-06-24T17:44:53.831Z,3.97
2023-06-24T17:47:21.850Z,3.75
2023-06-24T17:49:49.966Z,3.40
2023-06-24T17:52:17.865Z,3.35
2023-06-24T17:54:45.788Z,3.62
2023-06-24T17:57:13.725Z,3.62
2023-06-24T17:59:41.668Z,3.60
2023-06-24T18:02:09.794Z,3.62
2023-06-24T18:04:37.815Z,3.90
2023-06-24T18:07:06.150Z,3.40
2023-06-24T18:09:34.091Z,3.45
2023-06-24T18:12:02.113Z,3.50
2023-06-24T18:14:30.040Z,3.65
2023-06-24T18:16:57.982Z,3.55
2023-06-24T18:19:25.946Z,4.55
2023-06-24T18:21:53.984Z,3.33
2023-06-24T18:24:22.070Z,3.58
2023-06-24T18:26:50.052Z,3.58
2023-06-24T18:29:18.016Z,3.95
2023-06-24T18:31:46.083Z,3.65
2023-06-24T18:34:14.037Z,3.83
2023-06-24T18:36:41.934Z,4.35
2023-06-24T18:39:09.878Z,3.42
2023-06-24T18:41:37.844Z,4.00
2023-06-24T18:44:07.234Z,4.75
2023-06-24T18:46:35.259Z,3.50
2023-06-24T18:49:03.203Z,3.70
2023-06-24T18:51:31.104Z,4.07
2023-06-24T18:53:59.039Z,3.78
2023-06-24T18:56:27.047Z,3.55
2023-06-24T18:58:55.084Z,3.80
2023-06-24T19:01:23.100Z,4.18
2023-06-24T19:03:51.097Z,4.37
2023-06-24T19:06:19.044Z,3.83
2023-06-24T19:08:49.543Z,3.92
2023-06-24T19:11:17.523Z,3.95
2023-06-24T19:13:45.506Z,4.07
2023-06-24T19:16:13.423Z,4.00
2023-06-24T19:18:41.312Z,3.62
2023-06-24T19:21:09.234Z,3.67
2023-06-24T19:23:37.161Z,3.60
2023-06-24T19:26:05.201Z,3.72
2023-06-24T19:28:33.126Z,4.18
2023-06-24T19:31:01.243Z,3.45
2023-06-24T19:33:29.334Z,4.18
2023-06-24T19:35:57.794Z,3.67
2023-06-24T19:38:25.796Z,4.00
2023-06-24T19:40:53.710Z,4.10
2023-06-24T19:43:23.901Z,4.15
2023-06-24T19:45:53.028Z,4.03
2023-06-24T19:48:24.480Z,4.20
2023-06-24T19:50:52.709Z,4.40
2023-06-24T19:53:20.630Z,3.67
2023-06-24T19:55:48.663Z,4.15
2023-06-24T19:58:16.629Z,4.30
2023-06-24T20:00:44.778Z,3.92
2023-06-24T20:03:12.884Z,4.32
2023-06-24T20:05:40.841Z,3.67
2023-06-24T20:08:08.847Z,4.15
2023-06-24T20:10:37.182Z,3.92
2023-06-24T20:13:05.350Z,3.58
2023-06-24T20:15:33.251Z,3.72
2023-06-24T20:18:01.239Z,3.97
2023-06-24T20:20:29.259Z,3.90
2023-06-24T20:22:57.286Z,4.18
2023-06-24T20:25:25.213Z,4.18
2023-06-24T20:27:53.160Z,3.50
2023-06-24T20:30:21.031Z,3.53
2023-06-24T20:32:49.020Z,4.00
2023-06-24T20:35:18.431Z,3.55
2023-06-24T20:37:46.295Z,3.70
2023-06-24T20:40:14.484Z,4.07
2023-06-24T20:42:42.489Z,3.90
2023-06-24T20:45:11.985Z,3.95
2023-06-24T20:47:40.165Z,3.67
2023-06-24T20:50:08.798Z,4.32
2023-06-24T20:52:38.035Z,3.80
2023-06-24T20:55:06.946Z,3.92
2023-06-24T20:57:35.188Z,4.05
2023-06-24T21:00:03.189Z,4.07
2023-06-24T21:02:33.804Z,4.12
2023-06-24T21:05:02.860Z,3.67
2023-06-24T21:07:30.905Z,4.20
2023-06-24T21:09:58.963Z,4.00
2023-06-24T21:12:26.998Z,4.10
2023-06-24T21:14:54.943Z,4.20
2023-06-24T21:17:23.026Z,4.45
2023-06-24T21:19:51.002Z,3.60
2023-06-24T21:22:19.109Z,3.65
2023-06-24T21:24:47.820Z,4.07
2023-06-24T21:27:16.258Z,4.12
2023-06-24T21:29:44.216Z,4.05
2023-06-24T21:32:12.601Z,4.10
2023-06-24T21:34:40.529Z,3.70
2023-06-24T21:37:08.461Z,3.97
2023-06-24T21:39:36.416Z,3.92
2023-06-24T21:42:04.540Z,4.00
2023-06-24T21:44:33.976Z,3.67
2023-06-24T21:47:02.005Z,3.92
2023-06-24T21:49:30.114Z,4.30
2023-06-24T21:52:00.094Z,4.18
2023-06-24T21:54:28.034Z,4.40
2023-06-24T21:56:56.581Z,4.00
2023-06-24T21:59:24.563Z,3.80
2023-06-24T22:01:52.569Z,3.92
2023-06-24T22:04:20.489Z,4.53
2023-06-24T22:06:48.465Z,3.85
2023-06-24T22:09:18.056Z,4.10
2023-06-24T22:11:46.054Z,3.75
2023-06-24T22:14:14.025Z,3.90
2023-06-24T22:16:44.161Z,4.03
2023-06-24T22:19:12.198Z,4.50
2023-06-24T22:21:40.112Z,4.03
2023-06-24T22:24:08.205Z,3.90
2023-06-24T22:26:36.334Z,4.00
2023-06-24T22:29:04.418Z,4.15
2023-06-24T22:31:32.454Z,3.95
2023-06-24T22:34:01.572Z,3.83
2023-06-24T22:36:29.449Z,4.15
2023-06-24T22:38:57.487Z,3.97
2023-06-24T22:41:25.687Z,4.03
2023-06-24T22:43:53.718Z,4.18
2023-06-24T22:46:21.663Z,4.60
2023-06-24T22:48:49.776Z,4.60
2023-06-24T22:51:17.768Z,4.40
2023-06-24T22:53:47.613Z,4.25
2023-06-24T22:56:15.664Z,4.22
2023-06-24T22:58:43.609Z,4.30
2023-06-24T23:01:11.656Z,3.70
2023-06-24T23:03:40.084Z,4.18
2023-06-24T23:06:08.655Z,3.83
2023-06-24T23:08:36.810Z,4.50
2023-06-24T23:11:05.019Z,4.12
2023-06-24T23:13:34.749Z,3.95
2023-06-24T23:16:04.022Z,3.42
2023-06-24T23:18:32.687Z,4.20
2023-06-24T23:21:01.086Z,3.83
2023-06-24T23:23:29.340Z,3.60
2023-06-24T23:25:57.729Z,3.75
2023-06-24T23:28:29.993Z,3.72
2023-06-24T23:30:58.599Z,4.03
2023-06-24T23:33:26.785Z,3.97
2023-06-24T23:35:54.965Z,4.70
2023-06-24T23:38:24.120Z,5.75
2023-06-24T23:40:52.416Z,5.40
2023-06-24T23:43:22.784Z,5.78
2023-06-24T23:45:52.720Z,5.28
2023-06-24T23:48:21.035Z,5.70
2023-06-24T23:50:50.092Z,5.47
2023-06-24T23:53:18.046Z,5.78
2023-06-24T23:55:45.993Z,5.00
2023-06-24T23:58:13.972Z,4.95
